sensor_id;sensor_type;location;lat;lon;timestamp;pressure;altitude;pressure_sealevel;temperature;humidity
26657;BME280;14279;50.010;8.260;2024-03-29T00:01:44;98598.09;;;8.03;69.59
26657;BME280;14279;50.010;8.260;2024-03-29T00:04:10;98602.59;;;7.86;70.18
26657;BME280;14279;50.010;8.260;2024-03-29T00:06:35;98610.25;;;7.88;70.29
26657;BME280;14279;50.010;8.260;2024-03-29T00:09:00;98584.88;;;7.93;70.28
26657;BME280;14279;50.010;8.260;2024-03-29T00:11:26;98570.03;;;7.82;70.62
26657;BME280;14279;50.010;8.260;2024-03-29T00:13:52;98572.44;;;7.71;71.08
26657;BME280;14279;50.010;8.260;2024-03-29T00:16:17;98574.13;;;7.72;71.26
26657;BME280;14279;50.010;8.260;2024-03-29T00:18:42;98579.78;;;7.78;70.99
26657;BME280;14279;50.010;8.260;2024-03-29T00:21:07;98557.91;;;7.82;71.05
26657;BME280;14279;50.010;8.260;2024-03-29T00:23:33;98567.94;;;7.74;71.60
26657;BME280;14279;50.010;8.260;2024-03-29T00:25:58;98564.06;;;7.67;71.67
26657;BME280;14279;50.010;8.260;2024-03-29T00:28:24;98564.13;;;7.80;71.22
26657;BME280;14279;50.010;8.260;2024-03-29T00:30:49;98563.97;;;7.69;72.16
26657;BME280;14279;50.010;8.260;2024-03-29T00:33:14;98546.78;;;7.67;72.60
26657;BME280;14279;50.010;8.260;2024-03-29T00:35:39;98556.66;;;7.61;71.93
26657;BME280;14279;50.010;8.260;2024-03-29T00:38:05;98552.63;;;7.57;71.35
26657;BME280;14279;50.010;8.260;2024-03-29T00:40:30;98550.88;;;7.57;70.81
26657;BME280;14279;50.010;8.260;2024-03-29T00:42:55;98560.72;;;7.65;70.70
26657;BME280;14279;50.010;8.260;2024-03-29T00:45:20;98561.38;;;7.69;71.17
26657;BME280;14279;50.010;8.260;2024-03-29T00:47:46;98555.78;;;7.75;71.06
26657;BME280;14279;50.010;8.260;2024-03-29T00:50:11;98544.19;;;7.67;70.95
26657;BME280;14279;50.010;8.260;2024-03-29T00:52:36;98535.72;;;7.78;71.05
26657;BME280;14279;50.010;8.260;2024-03-29T00:55:02;98538.50;;;7.75;70.70
26657;BME280;14279;50.010;8.260;2024-03-29T00:57:28;98534.88;;;7.78;71.16
26657;BME280;14279;50.010;8.260;2024-03-29T00:59:53;98545.69;;;7.85;71.03
26657;BME280;14279;50.010;8.260;2024-03-29T01:02:19;98541.53;;;7.82;71.36
26657;BME280;14279;50.010;8.260;2024-03-29T01:04:44;98540.75;;;7.94;71.37
26657;BME280;14279;50.010;8.260;2024-03-29T01:07:09;98529.56;;;7.94;71.13
26657;BME280;14279;50.010;8.260;2024-03-29T01:09:34;98539.06;;;7.80;71.81
26657;BME280;14279;50.010;8.260;2024-03-29T01:11:59;98533.75;;;7.82;72.01
26657;BME280;14279;50.010;8.260;2024-03-29T01:14:25;98533.91;;;7.93;71.96
26657;BME280;14279;50.010;8.260;2024-03-29T01:16:50;98540.53;;;7.97;72.29
26657;BME280;14279;50.010;8.260;2024-03-29T01:19:16;98543.34;;;8.07;71.83
26657;BME280;14279;50.010;8.260;2024-03-29T01:21:41;98529.59;;;8.07;71.77
26657;BME280;14279;50.010;8.260;2024-03-29T01:24:06;98526.69;;;8.11;71.58
26657;BME280;14279;50.010;8.260;2024-03-29T01:26:31;98520.03;;;7.94;72.72
26657;BME280;14279;50.010;8.260;2024-03-29T01:28:57;98514.81;;;7.81;73.30
26657;BME280;14279;50.010;8.260;2024-03-29T01:31:23;98521.97;;;7.91;73.38
26657;BME280;14279;50.010;8.260;2024-03-29T01:33:49;98509.56;;;7.96;73.35
26657;BME280;14279;50.010;8.260;2024-03-29T01:36:14;98500.00;;;7.96;73.35
26657;BME280;14279;50.010;8.260;2024-03-29T01:38:40;98488.31;;;8.04;72.69
26657;BME280;14279;50.010;8.260;2024-03-29T01:41:05;98475.88;;;7.96;73.13
26657;BME280;14279;50.010;8.260;2024-03-29T01:43:30;98475.66;;;7.86;73.12
26657;BME280;14279;50.010;8.260;2024-03-29T01:45:56;98477.94;;;7.91;72.74
26657;BME280;14279;50.010;8.260;2024-03-29T01:48:25;98472.34;;;7.97;72.24
26657;BME280;14279;50.010;8.260;2024-03-29T01:50:53;98472.56;;;7.94;71.87
26657;BME280;14279;50.010;8.260;2024-03-29T01:53:20;98479.72;;;7.90;72.68
26657;BME280;14279;50.010;8.260;2024-03-29T01:55:46;98465.63;;;7.94;72.85
26657;BME280;14279;50.010;8.260;2024-03-29T01:58:11;98459.47;;;7.95;72.97
26657;BME280;14279;50.010;8.260;2024-03-29T02:00:39;98468.09;;;7.96;73.01
26657;BME280;14279;50.010;8.260;2024-03-29T02:03:06;98483.81;;;7.80;73.69
26657;BME280;14279;50.010;8.260;2024-03-29T02:05:39;98497.00;;;7.90;73.54
26657;BME280;14279;50.010;8.260;2024-03-29T02:08:06;98505.19;;;7.56;75.07
26657;BME280;14279;50.010;8.260;2024-03-29T02:10:31;98492.22;;;7.83;74.17
26657;BME280;14279;50.010;8.260;2024-03-29T02:12:56;98496.06;;;7.91;73.66
26657;BME280;14279;50.010;8.260;2024-03-29T02:15:22;98512.34;;;7.93;73.86
26657;BME280;14279;50.010;8.260;2024-03-29T02:17:47;98526.53;;;7.87;74.41
26657;BME280;14279;50.010;8.260;2024-03-29T02:20:12;98535.28;;;7.99;73.81
26657;BME280;14279;50.010;8.260;2024-03-29T02:22:41;98533.69;;;7.96;73.71
26657;BME280;14279;50.010;8.260;2024-03-29T02:25:10;98530.81;;;8.01;73.47
26657;BME280;14279;50.010;8.260;2024-03-29T02:27:37;98528.16;;;8.16;73.49
26657;BME280;14279;50.010;8.260;2024-03-29T02:30:03;98513.69;;;7.98;73.80
26657;BME280;14279;50.010;8.260;2024-03-29T02:32:28;98510.00;;;8.16;73.40
26657;BME280;14279;50.010;8.260;2024-03-29T02:34:53;98516.06;;;8.29;73.01
26657;BME280;14279;50.010;8.260;2024-03-29T02:37:19;98514.47;;;8.26;72.83
26657;BME280;14279;50.010;8.260;2024-03-29T02:39:44;98518.41;;;8.32;72.73
26657;BME280;14279;50.010;8.260;2024-03-29T02:42:09;98521.75;;;8.34;72.46
26657;BME280;14279;50.010;8.260;2024-03-29T02:44:34;98506.72;;;8.39;71.96
26657;BME280;14279;50.010;8.260;2024-03-29T02:46:59;98511.09;;;8.39;71.97
26657;BME280;14279;50.010;8.260;2024-03-29T02:49:25;98490.75;;;8.46;71.98
26657;BME280;14279;50.010;8.260;2024-03-29T02:51:50;98465.34;;;8.38;72.21
26657;BME280;14279;50.010;8.260;2024-03-29T02:54:18;98453.94;;;8.27;73.23
26657;BME280;14279;50.010;8.260;2024-03-29T02:56:43;98461.19;;;8.22;75.69
26657;BME280;14279;50.010;8.260;2024-03-29T02:59:08;98464.41;;;8.26;77.27
26657;BME280;14279;50.010;8.260;2024-03-29T03:01:33;98464.91;;;8.31;76.99
26657;BME280;14279;50.010;8.260;2024-03-29T03:03:58;98472.81;;;8.30;76.57
26657;BME280;14279;50.010;8.260;2024-03-29T03:06:24;98485.22;;;8.24;76.75
26657;BME280;14279;50.010;8.260;2024-03-29T03:08:49;98488.03;;;8.34;76.95
26657;BME280;14279;50.010;8.260;2024-03-29T03:11:33;98534.53;;;7.97;78.82
26657;BME280;14279;50.010;8.260;2024-03-29T03:13:58;98538.47;;;8.03;78.83
26657;BME280;14279;50.010;8.260;2024-03-29T03:16:24;98532.19;;;8.07;78.48
26657;BME280;14279;50.010;8.260;2024-03-29T03:18:50;98532.94;;;8.22;78.39
26657;BME280;14279;50.010;8.260;2024-03-29T03:21:16;98520.50;;;8.27;78.47
26657;BME280;14279;50.010;8.260;2024-03-29T03:23:41;98515.81;;;8.32;77.92
26657;BME280;14279;50.010;8.260;2024-03-29T03:26:06;98510.97;;;8.27;77.94
26657;BME280;14279;50.010;8.260;2024-03-29T03:28:32;98523.41;;;8.35;77.62
26657;BME280;14279;50.010;8.260;2024-03-29T03:30:57;98514.81;;;8.48;76.38
26657;BME280;14279;50.010;8.260;2024-03-29T03:33:22;98517.41;;;8.48;76.78
26657;BME280;14279;50.010;8.260;2024-03-29T03:35:48;98530.31;;;8.49;76.99
26657;BME280;14279;50.010;8.260;2024-03-29T03:38:14;98509.34;;;8.52;77.37
26657;BME280;14279;50.010;8.260;2024-03-29T03:40:40;98504.13;;;8.39;77.00
26657;BME280;14279;50.010;8.260;2024-03-29T03:43:06;98502.06;;;8.32;77.92
26657;BME280;14279;50.010;8.260;2024-03-29T03:45:39;98504.53;;;8.46;78.04
26657;BME280;14279;50.010;8.260;2024-03-29T03:48:08;98515.44;;;8.38;78.01
26657;BME280;14279;50.010;8.260;2024-03-29T03:50:35;98526.66;;;8.39;78.04
26657;BME280;14279;50.010;8.260;2024-03-29T03:53:00;98526.72;;;8.24;78.84
26657;BME280;14279;50.010;8.260;2024-03-29T03:55:26;98528.66;;;8.08;79.01
26657;BME280;14279;50.010;8.260;2024-03-29T03:57:53;98531.59;;;7.89;79.79
26657;BME280;14279;50.010;8.260;2024-03-29T04:00:19;98540.50;;;7.85;81.32
26657;BME280;14279;50.010;8.260;2024-03-29T04:02:51;98533.34;;;7.75;81.24
26657;BME280;14279;50.010;8.260;2024-03-29T04:05:18;98526.50;;;7.74;81.94
26657;BME280;14279;50.010;8.260;2024-03-29T04:07:43;98519.28;;;7.65;81.34
26657;BME280;14279;50.010;8.260;2024-03-29T04:10:08;98509.38;;;7.44;81.12
26657;BME280;14279;50.010;8.260;2024-03-29T04:12:34;98508.44;;;7.45;80.22
26657;BME280;14279;50.010;8.260;2024-03-29T04:14:59;98483.47;;;7.44;80.30
26657;BME280;14279;50.010;8.260;2024-03-29T04:17:24;98480.09;;;7.29;80.53
26657;BME280;14279;50.010;8.260;2024-03-29T04:19:50;98477.13;;;7.35;81.58
26657;BME280;14279;50.010;8.260;2024-03-29T04:22:15;98495.16;;;7.37;83.28
26657;BME280;14279;50.010;8.260;2024-03-29T04:24:40;98491.78;;;7.49;83.78
26657;BME280;14279;50.010;8.260;2024-03-29T04:27:05;98496.19;;;7.62;84.11
26657;BME280;14279;50.010;8.260;2024-03-29T04:29:31;98498.56;;;7.65;83.86
26657;BME280;14279;50.010;8.260;2024-03-29T04:31:56;98487.09;;;7.69;85.88
26657;BME280;14279;50.010;8.260;2024-03-29T04:34:21;98474.69;;;7.74;85.24
26657;BME280;14279;50.010;8.260;2024-03-29T04:36:46;98479.56;;;7.79;85.85
26657;BME280;14279;50.010;8.260;2024-03-29T04:39:12;98472.09;;;7.74;85.50
26657;BME280;14279;50.010;8.260;2024-03-29T04:41:37;98462.75;;;7.72;84.76
26657;BME280;14279;50.010;8.260;2024-03-29T04:44:03;98461.75;;;7.74;84.94
26657;BME280;14279;50.010;8.260;2024-03-29T04:46:30;98452.84;;;7.78;85.79
26657;BME280;14279;50.010;8.260;2024-03-29T04:48:56;98452.63;;;7.69;85.51
26657;BME280;14279;50.010;8.260;2024-03-29T04:51:21;98455.19;;;7.69;86.24
26657;BME280;14279;50.010;8.260;2024-03-29T04:53:46;98456.88;;;7.70;86.08
26657;BME280;14279;50.010;8.260;2024-03-29T04:56:11;98459.16;;;7.74;86.57
26657;BME280;14279;50.010;8.260;2024-03-29T04:58:37;98466.19;;;7.72;87.30
26657;BME280;14279;50.010;8.260;2024-03-29T05:01:02;98466.06;;;7.74;87.29
26657;BME280;14279;50.010;8.260;2024-03-29T05:03:28;98473.94;;;7.72;87.77
26657;BME280;14279;50.010;8.260;2024-03-29T05:05:53;98465.13;;;7.75;88.49
26657;BME280;14279;50.010;8.260;2024-03-29T05:08:19;98470.44;;;7.73;89.28
26657;BME280;14279;50.010;8.260;2024-03-29T05:10:45;98476.94;;;7.66;89.36
26657;BME280;14279;50.010;8.260;2024-03-29T05:13:11;98474.94;;;7.57;89.76
26657;BME280;14279;50.010;8.260;2024-03-29T05:15:37;98476.88;;;7.53;89.82
26657;BME280;14279;50.010;8.260;2024-03-29T05:18:02;98475.72;;;7.44;90.57
26657;BME280;14279;50.010;8.260;2024-03-29T05:20:28;98480.47;;;7.37;91.27
26657;BME280;14279;50.010;8.260;2024-03-29T05:22:54;98473.19;;;7.30;91.60
26657;BME280;14279;50.010;8.260;2024-03-29T05:25:19;98478.63;;;7.25;91.78
26657;BME280;14279;50.010;8.260;2024-03-29T05:27:44;98475.66;;;7.31;93.19
26657;BME280;14279;50.010;8.260;2024-03-29T05:30:10;98481.47;;;7.35;93.27
26657;BME280;14279;50.010;8.260;2024-03-29T05:32:35;98481.69;;;7.17;92.21
26657;BME280;14279;50.010;8.260;2024-03-29T05:35:01;98483.72;;;7.12;92.94
26657;BME280;14279;50.010;8.260;2024-03-29T05:37:26;98498.34;;;7.13;92.41
26657;BME280;14279;50.010;8.260;2024-03-29T05:39:51;98501.47;;;7.18;92.13
26657;BME280;14279;50.010;8.260;2024-03-29T05:42:26;98509.72;;;7.11;92.51
26657;BME280;14279;50.010;8.260;2024-03-29T05:44:52;98513.41;;;7.06;91.25
26657;BME280;14279;50.010;8.260;2024-03-29T05:47:17;98519.78;;;7.15;90.84
26657;BME280;14279;50.010;8.260;2024-03-29T05:49:42;98528.47;;;7.29;91.00
26657;BME280;14279;50.010;8.260;2024-03-29T05:52:07;98522.63;;;7.40;90.84
26657;BME280;14279;50.010;8.260;2024-03-29T05:54:33;98518.91;;;7.44;90.21
26657;BME280;14279;50.010;8.260;2024-03-29T05:57:00;98512.53;;;7.35;89.20
26657;BME280;14279;50.010;8.260;2024-03-29T05:59:25;98512.34;;;7.38;89.02
26657;BME280;14279;50.010;8.260;2024-03-29T06:01:50;98513.81;;;7.42;89.30
26657;BME280;14279;50.010;8.260;2024-03-29T06:04:16;98522.69;;;7.52;90.69
26657;BME280;14279;50.010;8.260;2024-03-29T06:06:44;98533.81;;;7.67;91.15
26657;BME280;14279;50.010;8.260;2024-03-29T06:09:09;98538.94;;;7.82;92.45
26657;BME280;14279;50.010;8.260;2024-03-29T06:11:35;98543.81;;;7.87;92.93
26657;BME280;14279;50.010;8.260;2024-03-29T06:14:00;98532.25;;;7.92;94.03
26657;BME280;14279;50.010;8.260;2024-03-29T06:16:28;98528.13;;;8.03;93.96
26657;BME280;14279;50.010;8.260;2024-03-29T06:19:12;98536.81;;;8.02;93.41
26657;BME280;14279;50.010;8.260;2024-03-29T06:21:38;98533.97;;;8.06;94.08
26657;BME280;14279;50.010;8.260;2024-03-29T06:24:08;98541.31;;;8.12;93.73
26657;BME280;14279;50.010;8.260;2024-03-29T06:26:34;98538.31;;;8.19;93.28
26657;BME280;14279;50.010;8.260;2024-03-29T06:29:00;98538.94;;;8.22;93.73
26657;BME280;14279;50.010;8.260;2024-03-29T06:31:26;98533.34;;;8.28;94.07
26657;BME280;14279;50.010;8.260;2024-03-29T06:33:51;98534.41;;;8.26;93.75
26657;BME280;14279;50.010;8.260;2024-03-29T06:36:16;98538.22;;;8.33;92.67
26657;BME280;14279;50.010;8.260;2024-03-29T06:38:44;98539.88;;;8.34;92.92
26657;BME280;14279;50.010;8.260;2024-03-29T06:41:09;98535.84;;;8.43;91.55
26657;BME280;14279;50.010;8.260;2024-03-29T06:43:35;98537.09;;;8.37;92.62
26657;BME280;14279;50.010;8.260;2024-03-29T06:46:00;98534.09;;;8.31;92.13
26657;BME280;14279;50.010;8.260;2024-03-29T06:48:27;98537.28;;;8.21;91.68
26657;BME280;14279;50.010;8.260;2024-03-29T06:50:53;98529.84;;;8.30;91.79
26657;BME280;14279;50.010;8.260;2024-03-29T06:53:18;98540.00;;;8.33;91.88
26657;BME280;14279;50.010;8.260;2024-03-29T06:55:45;98537.00;;;8.26;91.93
26657;BME280;14279;50.010;8.260;2024-03-29T06:58:10;98534.19;;;8.16;92.19
26657;BME280;14279;50.010;8.260;2024-03-29T07:00:35;98530.00;;;8.13;91.88
26657;BME280;14279;50.010;8.260;2024-03-29T07:03:01;98526.81;;;8.10;92.17
26657;BME280;14279;50.010;8.260;2024-03-29T07:05:26;98533.34;;;8.16;91.71
26657;BME280;14279;50.010;8.260;2024-03-29T07:07:51;98533.72;;;8.09;91.10
26657;BME280;14279;50.010;8.260;2024-03-29T07:10:18;98540.91;;;8.19;91.26
26657;BME280;14279;50.010;8.260;2024-03-29T07:12:43;98540.19;;;8.17;93.15
26657;BME280;14279;50.010;8.260;2024-03-29T07:15:08;98544.03;;;8.24;93.08
26657;BME280;14279;50.010;8.260;2024-03-29T07:17:34;98547.22;;;8.15;93.14
26657;BME280;14279;50.010;8.260;2024-03-29T07:19:59;98540.38;;;8.13;93.74
26657;BME280;14279;50.010;8.260;2024-03-29T07:22:24;98540.94;;;8.32;94.58
26657;BME280;14279;50.010;8.260;2024-03-29T07:24:50;98545.00;;;8.36;94.11
26657;BME280;14279;50.010;8.260;2024-03-29T07:27:15;98544.59;;;8.42;93.45
26657;BME280;14279;50.010;8.260;2024-03-29T07:29:42;98545.47;;;8.55;94.23
26657;BME280;14279;50.010;8.260;2024-03-29T07:32:09;98543.47;;;8.59;94.09
26657;BME280;14279;50.010;8.260;2024-03-29T07:34:34;98535.63;;;8.74;94.11
26657;BME280;14279;50.010;8.260;2024-03-29T07:36:59;98537.56;;;8.83;93.97
26657;BME280;14279;50.010;8.260;2024-03-29T07:39:25;98527.16;;;8.96;92.87
26657;BME280;14279;50.010;8.260;2024-03-29T07:41:50;98530.09;;;8.91;94.07
26657;BME280;14279;50.010;8.260;2024-03-29T07:44:15;98528.31;;;8.92;93.74
26657;BME280;14279;50.010;8.260;2024-03-29T07:46:40;98527.16;;;8.96;94.24
26657;BME280;14279;50.010;8.260;2024-03-29T07:49:06;98529.97;;;8.93;93.40
26657;BME280;14279;50.010;8.260;2024-03-29T07:51:31;98530.41;;;8.99;94.92
26657;BME280;14279;50.010;8.260;2024-03-29T07:53:56;98523.97;;;8.92;95.65
26657;BME280;14279;50.010;8.260;2024-03-29T07:56:22;98526.97;;;8.86;96.35
26657;BME280;14279;50.010;8.260;2024-03-29T07:58:51;98521.38;;;8.92;96.04
26657;BME280;14279;50.010;8.260;2024-03-29T08:01:20;98519.50;;;8.94;95.05
26657;BME280;14279;50.010;8.260;2024-03-29T08:03:46;98521.97;;;8.96;96.24
26657;BME280;14279;50.010;8.260;2024-03-29T08:06:11;98518.56;;;8.95;95.12
26657;BME280;14279;50.010;8.260;2024-03-29T08:08:37;98528.72;;;9.11;95.14
26657;BME280;14279;50.010;8.260;2024-03-29T08:11:02;98536.06;;;9.17;95.18
26657;BME280;14279;50.010;8.260;2024-03-29T08:13:27;98544.69;;;9.18;94.80
26657;BME280;14279;50.010;8.260;2024-03-29T08:15:59;98546.44;;;9.17;95.06
26657;BME280;14279;50.010;8.260;2024-03-29T08:18:26;98541.88;;;9.21;94.66
26657;BME280;14279;50.010;8.260;2024-03-29T08:20:51;98544.38;;;9.23;95.39
26657;BME280;14279;50.010;8.260;2024-03-29T08:23:17;98551.56;;;9.19;95.58
26657;BME280;14279;50.010;8.260;2024-03-29T08:25:42;98557.56;;;9.20;95.46
26657;BME280;14279;50.010;8.260;2024-03-29T08:28:07;98559.72;;;9.26;96.15
26657;BME280;14279;50.010;8.260;2024-03-29T08:30:32;98560.84;;;9.35;96.04
26657;BME280;14279;50.010;8.260;2024-03-29T08:33:02;98564.59;;;9.30;96.61
26657;BME280;14279;50.010;8.260;2024-03-29T08:35:32;98571.19;;;9.23;95.27
26657;BME280;14279;50.010;8.260;2024-03-29T08:37:57;98562.75;;;9.07;95.17
26657;BME280;14279;50.010;8.260;2024-03-29T08:40:22;98562.69;;;8.95;95.93
26657;BME280;14279;50.010;8.260;2024-03-29T08:42:49;98560.91;;;8.96;96.38
26657;BME280;14279;50.010;8.260;2024-03-29T08:45:14;98564.63;;;8.92;96.25
26657;BME280;14279;50.010;8.260;2024-03-29T08:47:39;98572.03;;;8.98;97.11
26657;BME280;14279;50.010;8.260;2024-03-29T08:50:05;98572.41;;;9.05;96.82
26657;BME280;14279;50.010;8.260;2024-03-29T08:52:30;98573.16;;;9.07;96.85
26657;BME280;14279;50.010;8.260;2024-03-29T08:54:55;98583.44;;;9.08;96.29
26657;BME280;14279;50.010;8.260;2024-03-29T08:57:21;98605.88;;;9.09;95.67
26657;BME280;14279;50.010;8.260;2024-03-29T08:59:46;98601.50;;;9.10;96.46
26657;BME280;14279;50.010;8.260;2024-03-29T09:02:11;98610.75;;;9.14;96.49
26657;BME280;14279;50.010;8.260;2024-03-29T09:04:37;98617.72;;;9.13;95.91
26657;BME280;14279;50.010;8.260;2024-03-29T09:07:02;98619.13;;;9.17;96.81
26657;BME280;14279;50.010;8.260;2024-03-29T09:09:32;98622.16;;;9.24;97.17
26657;BME280;14279;50.010;8.260;2024-03-29T09:11:57;98630.97;;;9.22;97.29
26657;BME280;14279;50.010;8.260;2024-03-29T09:14:23;98634.41;;;9.35;98.49
26657;BME280;14279;50.010;8.260;2024-03-29T09:16:49;98634.47;;;9.46;98.28
26657;BME280;14279;50.010;8.260;2024-03-29T09:19:22;98639.69;;;9.46;98.11
26657;BME280;14279;50.010;8.260;2024-03-29T09:21:49;98635.00;;;9.52;97.55
26657;BME280;14279;50.010;8.260;2024-03-29T09:24:14;98639.50;;;9.24;96.13
26657;BME280;14279;50.010;8.260;2024-03-29T09:26:39;98639.09;;;9.17;97.00
26657;BME280;14279;50.010;8.260;2024-03-29T09:29:06;98634.22;;;9.25;97.20
26657;BME280;14279;50.010;8.260;2024-03-29T09:31:31;98646.34;;;9.38;96.40
26657;BME280;14279;50.010;8.260;2024-03-29T09:33:57;98649.06;;;9.36;96.80
26657;BME280;14279;50.010;8.260;2024-03-29T09:36:23;98654.13;;;9.38;97.03
26657;BME280;14279;50.010;8.260;2024-03-29T09:38:49;98648.31;;;9.47;97.59
26657;BME280;14279;50.010;8.260;2024-03-29T09:41:16;98648.19;;;9.61;96.07
26657;BME280;14279;50.010;8.260;2024-03-29T09:43:42;98650.63;;;9.76;95.67
26657;BME280;14279;50.010;8.260;2024-03-29T09:46:10;98644.97;;;9.95;96.02
26657;BME280;14279;50.010;8.260;2024-03-29T09:48:37;98646.38;;;10.12;95.17
26657;BME280;14279;50.010;8.260;2024-03-29T09:51:06;98668.31;;;10.08;95.35
26657;BME280;14279;50.010;8.260;2024-03-29T09:53:34;98660.13;;;10.26;95.45
26657;BME280;14279;50.010;8.260;2024-03-29T09:56:08;98658.53;;;10.36;95.14
26657;BME280;14279;50.010;8.260;2024-03-29T09:58:38;98661.94;;;10.49;94.27
26657;BME280;14279;50.010;8.260;2024-03-29T10:01:04;98666.66;;;10.44;92.67
26657;BME280;14279;50.010;8.260;2024-03-29T10:03:31;98673.06;;;10.51;92.87
26657;BME280;14279;50.010;8.260;2024-03-29T10:06:00;98662.81;;;10.37;93.15
26657;BME280;14279;50.010;8.260;2024-03-29T10:08:30;98668.53;;;10.42;93.54
26657;BME280;14279;50.010;8.260;2024-03-29T10:10:56;98674.56;;;10.43;93.26
26657;BME280;14279;50.010;8.260;2024-03-29T10:13:22;98679.91;;;10.28;93.05
26657;BME280;14279;50.010;8.260;2024-03-29T10:15:52;98690.75;;;10.22;94.32
26657;BME280;14279;50.010;8.260;2024-03-29T10:18:20;98680.50;;;10.32;94.54
26657;BME280;14279;50.010;8.260;2024-03-29T10:20:46;98679.34;;;10.36;95.08
26657;BME280;14279;50.010;8.260;2024-03-29T10:23:12;98673.03;;;10.40;94.52
26657;BME280;14279;50.010;8.260;2024-03-29T10:25:37;98674.84;;;10.51;94.22
26657;BME280;14279;50.010;8.260;2024-03-29T10:28:02;98674.44;;;10.68;93.20
26657;BME280;14279;50.010;8.260;2024-03-29T10:30:28;98664.66;;;10.83;93.11
26657;BME280;14279;50.010;8.260;2024-03-29T10:32:57;98659.66;;;10.69;90.58
26657;BME280;14279;50.010;8.260;2024-03-29T10:35:22;98665.69;;;10.70;89.66
26657;BME280;14279;50.010;8.260;2024-03-29T10:37:49;98658.09;;;10.66;89.98
26657;BME280;14279;50.010;8.260;2024-03-29T10:40:15;98656.63;;;10.87;88.92
26657;BME280;14279;50.010;8.260;2024-03-29T10:42:42;98645.75;;;10.93;88.88
26657;BME280;14279;50.010;8.260;2024-03-29T10:45:09;98655.06;;;10.84;88.17
26657;BME280;14279;50.010;8.260;2024-03-29T10:47:35;98647.03;;;10.87;88.90
26657;BME280;14279;50.010;8.260;2024-03-29T10:50:01;98643.38;;;10.90;88.68
26657;BME280;14279;50.010;8.260;2024-03-29T10:52:28;98637.59;;;11.09;87.27
26657;BME280;14279;50.010;8.260;2024-03-29T10:54:53;98634.75;;;11.35;86.98
26657;BME280;14279;50.010;8.260;2024-03-29T10:57:23;98631.34;;;11.34;87.17
26657;BME280;14279;50.010;8.260;2024-03-29T11:00:05;98629.09;;;11.30;86.65
26657;BME280;14279;50.010;8.260;2024-03-29T11:02:41;98633.00;;;11.35;86.32
26657;BME280;14279;50.010;8.260;2024-03-29T11:05:09;98635.50;;;11.25;87.41
26657;BME280;14279;50.010;8.260;2024-03-29T11:07:39;98630.50;;;11.34;86.95
26657;BME280;14279;50.010;8.260;2024-03-29T11:10:05;98625.03;;;11.71;85.54
26657;BME280;14279;50.010;8.260;2024-03-29T11:12:41;98613.50;;;12.08;83.61
26657;BME280;14279;50.010;8.260;2024-03-29T11:15:16;98619.03;;;12.47;81.94
26657;BME280;14279;50.010;8.260;2024-03-29T11:17:44;98627.28;;;12.31;82.34
26657;BME280;14279;50.010;8.260;2024-03-29T11:20:10;98626.56;;;12.29;82.59
26657;BME280;14279;50.010;8.260;2024-03-29T11:22:36;98622.81;;;12.22;83.19
26657;BME280;14279;50.010;8.260;2024-03-29T11:25:02;98629.81;;;12.21;83.27
26657;BME280;14279;50.010;8.260;2024-03-29T11:27:29;98644.31;;;12.14;83.76
26657;BME280;14279;50.010;8.260;2024-03-29T11:29:54;98661.16;;;11.87;85.05
26657;BME280;14279;50.010;8.260;2024-03-29T11:32:36;98674.66;;;11.69;86.00
26657;BME280;14279;50.010;8.260;2024-03-29T11:35:04;98684.88;;;11.61;86.61
26657;BME280;14279;50.010;8.260;2024-03-29T11:37:30;98693.97;;;11.33;88.80
26657;BME280;14279;50.010;8.260;2024-03-29T11:39:58;98699.28;;;11.20;90.26
26657;BME280;14279;50.010;8.260;2024-03-29T11:42:44;98688.75;;;11.33;90.18
26657;BME280;14279;50.010;8.260;2024-03-29T11:45:10;98685.09;;;11.24;91.61
26657;BME280;14279;50.010;8.260;2024-03-29T11:47:39;98683.09;;;11.27;93.15
26657;BME280;14279;50.010;8.260;2024-03-29T11:50:05;98681.06;;;11.31;93.91
26657;BME280;14279;50.010;8.260;2024-03-29T11:52:31;98665.91;;;11.48;95.08
26657;BME280;14279;50.010;8.260;2024-03-29T11:54:56;98668.06;;;11.54;94.36
26657;BME280;14279;50.010;8.260;2024-03-29T11:57:21;98672.31;;;11.78;93.14
26657;BME280;14279;50.010;8.260;2024-03-29T11:59:47;98677.03;;;11.84;93.29
26657;BME280;14279;50.010;8.260;2024-03-29T12:02:13;98685.56;;;11.75;94.26
26657;BME280;14279;50.010;8.260;2024-03-29T12:04:40;98699.31;;;11.54;94.79
26657;BME280;14279;50.010;8.260;2024-03-29T12:07:06;98695.41;;;11.25;96.84
26657;BME280;14279;50.010;8.260;2024-03-29T12:09:31;98680.09;;;11.09;97.79
26657;BME280;14279;50.010;8.260;2024-03-29T12:11:56;98674.31;;;11.06;97.78
26657;BME280;14279;50.010;8.260;2024-03-29T12:14:25;98675.25;;;11.05;98.83
26657;BME280;14279;50.010;8.260;2024-03-29T12:16:52;98676.75;;;10.96;100.00
26657;BME280;14279;50.010;8.260;2024-03-29T12:19:23;98657.84;;;11.05;100.00
26657;BME280;14279;50.010;8.260;2024-03-29T12:21:50;98643.91;;;11.18;100.00
26657;BME280;14279;50.010;8.260;2024-03-29T12:24:16;98640.59;;;11.38;100.00
26657;BME280;14279;50.010;8.260;2024-03-29T12:26:42;98625.78;;;11.39;100.00
26657;BME280;14279;50.010;8.260;2024-03-29T12:29:07;98642.81;;;11.32;100.00
26657;BME280;14279;50.010;8.260;2024-03-29T12:31:32;98658.13;;;11.36;100.00
26657;BME280;14279;50.010;8.260;2024-03-29T12:33:57;98677.53;;;11.32;100.00
26657;BME280;14279;50.010;8.260;2024-03-29T12:36:24;98687.72;;;11.35;100.00
26657;BME280;14279;50.010;8.260;2024-03-29T12:38:54;98692.66;;;11.27;100.00
26657;BME280;14279;50.010;8.260;2024-03-29T12:41:23;98692.22;;;11.33;100.00
26657;BME280;14279;50.010;8.260;2024-03-29T12:43:52;98689.47;;;11.35;100.00
26657;BME280;14279;50.010;8.260;2024-03-29T12:46:18;98693.41;;;11.40;100.00
26657;BME280;14279;50.010;8.260;2024-03-29T12:48:43;98708.31;;;11.38;100.00
26657;BME280;14279;50.010;8.260;2024-03-29T12:51:08;98711.38;;;11.43;100.00
26657;BME280;14279;50.010;8.260;2024-03-29T12:53:34;98714.47;;;11.49;100.00
26657;BME280;14279;50.010;8.260;2024-03-29T12:55:59;98728.22;;;11.51;100.00
26657;BME280;14279;50.010;8.260;2024-03-29T12:58:25;98730.25;;;11.47;100.00
26657;BME280;14279;50.010;8.260;2024-03-29T13:00:50;98731.06;;;11.48;100.00
26657;BME280;14279;50.010;8.260;2024-03-29T13:03:16;98728.34;;;11.49;100.00